Time;durP1;ratioP1;P1;durP2;ratioP2;P2;SDS_P1;SDS_P2;PMS_P1;PMS_P2;Temp;Humidity;BMP_temperature;BMP_pressure;BME280_temperature;BME280_humidity;BME280_pressure;Samples;Min_cycle;Max_cycle;Signal;HPM_P1;HPM_P2
2022/04/21 00:01:22;;;;;;;6.93;4.47;;;;;;;10.92;62.58;101276.13;5315259;28;20031;-67
2022/04/21 00:03:53;;;;;;;8.32;4.72;;;;;;;10.88;62.29;101279.94;5313317;28;20051;-67
2022/04/21 00:06:25;;;;;;;6.82;4.68;;;;;;;10.84;62.24;101275.91;5315753;28;20028;-67
2022/04/21 00:08:56;;;;;;;6.72;4.47;;;;;;;10.83;63.25;101271.59;5314570;28;20040;-68
2022/04/21 00:11:27;;;;;;;6.15;4.65;;;;;;;10.80;63.20;101273.63;5312983;28;20034;-68
2022/04/21 00:13:59;;;;;;;5.90;5.00;;;;;;;10.82;63.54;101269.09;5315413;28;20039;-67
2022/04/21 00:16:30;;;;;;;7.28;5.05;;;;;;;10.78;63.22;101272.91;5316096;28;20028;-68
2022/04/21 00:19:01;;;;;;;7.40;4.30;;;;;;;10.77;63.60;101276.50;5316417;28;20490;-69
2022/04/21 00:23:25;;;;;;;7.50;4.75;;;;;;;10.80;63.45;101271.03;5311412;28;20571;-67
2022/04/21 00:24:23;;;;;;;9.15;4.88;;;;;;;10.71;63.33;101267.31;5312262;28;20040;-69
2022/04/21 00:26:55;;;;;;;6.22;3.95;;;;;;;10.70;63.82;101271.72;5320271;28;20580;-67
2022/04/21 00:29:26;;;;;;;5.80;4.63;;;;;;;10.65;63.61;101266.03;5320092;28;20408;-67
2022/04/21 00:31:57;;;;;;;6.93;5.53;;;;;;;10.59;64.35;101265.66;5316967;28;20405;-67
2022/04/21 00:34:29;;;;;;;7.53;5.28;;;;;;;10.56;64.06;101266.72;5320467;28;20024;-67
2022/04/21 00:37:01;;;;;;;7.28;4.65;;;;;;;10.57;64.49;101264.94;5320906;28;20028;-69
2022/04/21 00:39:32;;;;;;;7.93;4.50;;;;;;;10.57;64.01;101264.94;5320146;28;20031;-69
2022/04/21 00:42:04;;;;;;;7.93;4.75;;;;;;;10.55;64.72;101264.25;5318425;28;20050;-69
2022/04/21 00:44:35;;;;;;;7.40;5.32;;;;;;;10.62;64.98;101266.25;5318404;28;20390;-69
2022/04/21 00:47:07;;;;;;;8.30;4.30;;;;;;;10.54;64.70;101265.19;5320481;28;20069;-69
2022/04/21 00:49:39;;;;;;;5.53;4.35;;;;;;;10.44;65.17;101262.44;5318584;28;20043;-67
2022/04/21 00:52:11;;;;;;;4.82;4.25;;;;;;;10.42;64.80;101257.34;5318118;28;20034;-67
2022/04/21 00:54:43;;;;;;;7.60;5.00;;;;;;;10.33;65.63;101251.97;5319330;28;20035;-67
2022/04/21 00:57:15;;;;;;;6.50;5.05;;;;;;;10.35;65.26;101256.16;5320824;28;20019;-67
2022/04/21 00:59:47;;;;;;;9.60;5.13;;;;;;;10.28;66.29;101254.94;5316903;28;20103;-67
2022/04/21 01:05:09;;;;;;;5.40;4.32;;;;;;;10.30;66.31;101250.41;5317802;28;20028;-67
2022/04/21 01:07:41;;;;;;;7.30;5.03;;;;;;;10.36;65.49;101251.72;5320501;28;20028;-68
2022/04/21 01:10:13;;;;;;;9.23;4.97;;;;;;;10.33;65.89;101254.59;5320075;28;20031;-68
2022/04/21 01:12:45;;;;;;;7.63;4.90;;;;;;;10.21;66.55;101248.47;5318480;28;20384;-68
2022/04/21 01:15:17;;;;;;;5.78;4.43;;;;;;;10.30;66.45;101258.25;5315178;28;20685;-68
2022/04/21 01:17:48;;;;;;;7.70;4.78;;;;;;;10.29;66.32;101263.63;5318906;28;20174;-68
2022/04/21 01:20:24;;;;;;;8.52;4.82;;;;;;;10.24;65.65;101259.56;5319876;28;20043;-67
2022/04/21 01:22:55;;;;;;;6.80;4.22;;;;;;;10.19;66.13;101255.59;5311231;28;20066;-68
2022/04/21 01:25:26;;;;;;;6.75;4.50;;;;;;;10.14;67.27;101262.97;5319578;28;20525;-68
2022/04/21 01:28:00;;;;;;;6.47;4.18;;;;;;;10.13;66.77;101261.31;5319647;28;20040;-68
2022/04/21 01:30:31;;;;;;;;;;;;;;;10.60;63.78;101254.22;5325087;27;20034;-67
2022/04/21 01:33:02;;;;;;;7.63;4.68;;;;;;;10.20;66.27;101255.50;5318371;28;20289;-68
2022/04/21 01:35:37;;;;;;;5.75;4.57;;;;;;;10.14;67.06;101255.97;5318829;28;20084;-68
2022/04/21 01:41:11;;;;;;;7.72;4.82;;;;;;;10.04;67.34;101254.16;5318409;28;20035;-67
2022/04/21 01:43:43;;;;;;;5.97;4.88;;;;;;;10.02;67.24;101242.97;5317021;28;20028;-68
2022/04/21 01:46:14;;;;;;;7.95;5.10;;;;;;;10.03;68.10;101245.47;5319116;28;20032;-68
2022/04/21 01:48:46;;;;;;;6.53;4.90;;;;;;;10.00;67.78;101243.13;5318023;28;20500;-67
2022/04/21 01:51:17;;;;;;;6.53;4.57;;;;;;;9.98;67.82;101252.84;5317769;28;20550;-68
2022/04/21 01:53:48;;;;;;;5.95;4.78;;;;;;;10.05;67.93;101253.22;5318858;28;20450;-67
2022/04/21 01:56:20;;;;;;;6.07;4.90;;;;;;;9.95;67.87;101251.28;5312873;28;20111;-67
2022/04/21 01:58:51;;;;;;;5.47;4.57;;;;;;;9.92;68.14;101238.44;5318228;28;20027;-67
2022/04/21 02:01:22;;;;;;;6.40;4.95;;;;;;;9.96;67.45;101242.50;5317366;28;20030;-68
2022/04/21 02:03:54;;;;;;;8.10;5.30;;;;;;;9.91;68.05;101246.41;5314109;28;20024;-68
2022/04/21 02:06:25;;;;;;;6.88;4.78;;;;;;;9.91;68.32;101249.03;5317913;28;20063;-67
2022/04/21 02:08:58;;;;;;;8.48;4.97;;;;;;;9.82;69.05;101244.50;5319456;28;20172;-68
2022/04/21 02:11:29;;;;;;;9.65;5.00;;;;;;;9.83;68.77;101251.38;5317733;28;20015;-68
2022/04/21 02:14:01;;;;;;;7.07;5.38;;;;;;;9.78;69.56;101241.28;5315568;28;20036;-68
2022/04/21 02:16:32;;;;;;;8.18;5.20;;;;;;;9.74;68.89;101251.13;5318884;28;20027;-67
2022/04/21 02:19:03;;;;;;;5.90;4.60;;;;;;;9.71;69.55;101251.34;5316537;28;20028;-68
2022/04/21 02:21:34;;;;;;;9.65;5.38;;;;;;;9.74;69.63;101250.31;5316913;28;20110;-67
2022/04/21 02:24:06;;;;;;;6.60;4.72;;;;;;;9.67;69.59;101247.31;5317409;28;20398;-68
2022/04/21 02:26:37;;;;;;;6.80;5.45;;;;;;;9.72;69.93;101244.34;5318197;28;20519;-67
2022/04/21 02:29:08;;;;;;;8.35;5.30;;;;;;;9.68;70.13;101251.59;5317867;28;20541;-67
2022/04/21 02:31:40;;;;;;;7.07;5.43;;;;;;;9.68;70.46;101245.53;5311122;28;20400;-67
2022/04/21 02:34:11;;;;;;;6.05;5.15;;;;;;;9.56;70.39;101249.06;5318090;28;20027;-67
2022/04/21 02:36:42;;;;;;;5.65;4.88;;;;;;;9.58;70.48;101249.75;5318489;28;20016;-67
2022/04/21 02:39:14;;;;;;;8.77;4.95;;;;;;;9.54;70.55;101246.53;5319087;28;20023;-67
2022/04/21 02:41:45;;;;;;;8.68;5.22;;;;;;;9.49;71.01;101240.81;5314699;27;20035;-67
2022/04/21 02:44:17;;;;;;;8.40;4.95;;;;;;;9.50;70.40;101248.53;5318376;28;20044;-67
2022/04/21 02:46:48;;;;;;;8.23;5.07;;;;;;;9.42;71.03;101243.03;5317148;28;20028;-67
2022/04/21 02:49:20;;;;;;;8.80;5.53;;;;;;;9.47;71.38;101243.56;5314900;28;20558;-67
2022/04/21 02:51:51;;;;;;;7.88;5.10;;;;;;;9.43;71.14;101244.72;5316391;28;20111;-67
2022/04/21 02:57:27;;;;;;;7.77;5.30;;;;;;;9.38;71.25;101243.38;5283695;27;20039;-67
2022/04/21 03:00:01;;;;;;;6.15;4.75;;;;;;;9.33;71.98;101241.13;5316411;28;20292;-67
2022/04/21 03:02:32;;;;;;;;;;;;;;;9.82;68.29;101242.72;5317568;28;20035;-67
2022/04/21 03:05:03;;;;;;;6.83;4.67;;;;;;;9.30;71.29;101241.34;5317072;28;19919;-67
2022/04/21 03:07:35;;;;;;;6.88;5.32;;;;;;;9.21;72.42;101244.63;5318084;28;20454;-67
2022/04/21 03:10:06;;;;;;;7.15;5.00;;;;;;;9.19;72.00;101242.13;5316117;27;20031;-67
2022/04/21 03:12:38;;;;;;;6.65;4.85;;;;;;;9.14;72.24;101231.16;5315959;28;20046;-67
2022/04/21 03:15:11;;;;;;;6.95;5.03;;;;;;;9.13;73.00;101229.50;5317182;28;20270;-67
2022/04/21 03:17:42;;;;;;;7.07;5.10;;;;;;;9.12;73.15;101238.28;5316157;28;20031;-67
2022/04/21 03:24:18;;;;;;;8.32;4.97;;;;;;;9.06;73.28;101232.69;5314932;28;20024;-67
2022/04/21 03:25:55;;;;;;;7.75;5.43;;;;;;;9.05;73.65;101239.66;5317919;28;20464;-67
2022/04/21 03:28:26;;;;;;;7.97;4.95;;;;;;;9.00;74.00;101236.56;5312728;28;20118;-67
2022/04/21 03:30:57;;;;;;;8.48;4.70;;;;;;;8.96;74.03;101245.56;5315200;28;20027;-67
2022/04/21 03:33:28;;;;;;;7.95;4.65;;;;;;;9.00;74.19;101240.00;5317748;28;20024;-67
2022/04/21 03:36:00;;;;;;;7.15;4.88;;;;;;;8.95;74.89;101236.88;5315764;28;20519;-67
2022/04/21 03:38:31;;;;;;;8.15;5.45;;;;;;;8.90;74.91;101239.00;5317423;27;20088;-67
2022/04/21 03:41:02;;;;;;;8.48;5.22;;;;;;;8.87;74.59;101234.00;5316012;28;20030;-67
2022/04/21 03:43:33;;;;;;;8.07;5.00;;;;;;;8.92;74.69;101234.50;5314422;28;20048;-67
2022/04/21 03:46:05;;;;;;;12.13;5.43;;;;;;;8.91;74.72;101238.06;5316803;28;20027;-67
2022/04/21 03:48:36;;;;;;;7.25;4.88;;;;;;;8.87;74.87;101238.38;5317358;28;20050;-67
2022/04/21 03:51:09;;;;;;;6.80;5.65;;;;;;;8.79;74.72;101241.53;5315615;28;20032;-67
2022/04/21 03:53:41;;;;;;;;;;;;;;;9.30;70.70;101249.19;5316854;28;20027;-67
2022/04/21 03:56:12;;;;;;;6.87;4.87;;;;;;;8.91;74.43;101247.69;5314195;28;20438;-67
2022/04/21 03:58:43;;;;;;;8.50;4.85;;;;;;;8.78;74.29;101253.75;5316269;28;20417;-67
2022/04/21 04:01:14;;;;;;;7.82;5.22;;;;;;;8.82;75.76;101246.53;5316233;28;20478;-67
2022/04/21 04:03:46;;;;;;;8.50;5.18;;;;;;;8.71;75.91;101249.06;5313832;28;20406;-68
2022/04/21 04:11:57;;;;;;;10.65;5.32;;;;;;;8.62;75.82;101244.50;5312772;28;20028;-67
2022/04/21 04:14:29;;;;;;;7.57;5.05;;;;;;;8.58;75.74;101250.88;5315936;28;20494;-68
2022/04/21 04:17:00;;;;;;;6.43;5.10;;;;;;;8.52;75.81;101255.59;5316570;28;20031;-68
2022/04/21 04:19:32;;;;;;;8.75;5.40;;;;;;;8.55;76.71;101248.47;5316846;28;20098;-67
2022/04/21 04:22:04;;;;;;;10.95;6.18;;;;;;;8.53;76.46;101245.97;5313936;28;20035;-67
2022/04/21 04:24:35;;;;;;;7.38;5.43;;;;;;;8.48;75.92;101245.44;5316570;28;20546;-67
2022/04/21 04:27:06;;;;;;;9.00;6.13;;;;;;;8.48;76.79;101238.44;5317598;28;20073;-67
2022/04/21 04:29:38;;;;;;;7.40;5.25;;;;;;;8.45;75.76;101238.69;5315538;28;20020;-67
2022/04/21 04:32:09;;;;;;;8.18;5.65;;;;;;;8.45;76.81;101243.91;5315637;28;20051;-66
2022/04/21 04:34:44;;;;;;;7.55;5.75;;;;;;;8.46;77.07;101249.97;5315842;27;20027;-67
2022/04/21 04:37:15;;;;;;;8.10;5.78;;;;;;;8.44;76.41;101246.59;5307037;28;20027;-66
2022/04/21 04:39:47;;;;;;;8.68;5.70;;;;;;;8.46;76.52;101250.78;5316628;28;20830;-66
2022/04/21 04:42:20;;;;;;;8.88;5.53;;;;;;;8.49;77.12;101254.97;5314219;28;20383;-66
2022/04/21 04:47:42;;;;;;;9.48;6.22;;;;;;;8.42;76.20;101258.94;5315371;28;20507;-67
2022/04/21 04:50:13;;;;;;;8.20;6.15;;;;;;;8.45;77.11;101262.19;5316307;28;20020;-66
2022/04/21 04:52:45;;;;;;;9.30;5.95;;;;;;;8.36;77.04;101265.38;5311020;28;20024;-66
2022/04/21 04:55:16;;;;;;;9.18;5.88;;;;;;;8.42;76.67;101264.16;5308808;28;20057;-66
2022/04/21 04:57:49;;;;;;;10.13;5.63;;;;;;;8.42;76.77;101259.78;5316444;28;20551;-67
2022/04/21 05:00:20;;;;;;;8.35;5.47;;;;;;;8.41;76.43;101267.69;5316994;28;20118;-67
2022/04/21 05:02:52;;;;;;;7.93;5.68;;;;;;;8.41;76.59;101258.13;5311655;27;20092;-66
2022/04/21 05:05:23;;;;;;;8.85;6.15;;;;;;;8.42;76.90;101258.94;5315365;28;20019;-67
2022/04/21 05:07:54;;;;;;;7.72;5.70;;;;;;;8.47;76.90;101262.06;5313955;28;20035;-66
2022/04/21 05:10:28;;;;;;;8.32;5.40;;;;;;;8.44;77.27;101257.88;5315046;28;20031;-66
2022/04/21 05:13:00;;;;;;;9.93;5.97;;;;;;;8.46;76.85;101261.25;5317648;28;20059;-66
2022/04/21 05:15:31;;;;;;;11.35;5.90;;;;;;;8.49;77.39;101247.97;5317573;28;20546;-66
2022/04/21 05:18:02;;;;;;;9.35;5.70;;;;;;;8.52;76.29;101257.34;5319293;28;20409;-66
2022/04/21 05:20:34;;;;;;;9.75;5.82;;;;;;;8.52;76.11;101258.22;5318212;28;20035;-67
2022/04/21 05:23:06;;;;;;;6.85;5.65;;;;;;;8.61;76.16;101250.66;5314269;28;20020;-67
2022/04/21 05:25:38;;;;;;;9.45;6.22;;;;;;;8.63;75.44;101249.59;5319797;28;20028;-65
2022/04/21 05:28:10;;;;;;;8.68;5.80;;;;;;;8.67;74.91;101251.06;5317872;27;20039;-66
2022/04/21 05:30:58;;;;;;;9.75;6.40;;;;;;;8.71;74.53;101247.31;5318436;28;20032;-67
2022/04/21 05:33:30;;;;;;;10.82;6.35;;;;;;;8.81;73.71;101255.31;5317590;28;20031;-66
2022/04/21 05:36:02;;;;;;;9.10;5.93;;;;;;;8.83;74.87;101252.63;5318100;28;20488;-66
2022/04/21 05:38:33;;;;;;;10.65;6.50;;;;;;;8.88;74.54;101250.50;5320335;28;20239;-68
2022/04/21 05:41:05;;;;;;;9.88;6.45;;;;;;;8.90;74.26;101252.06;5317699;28;20031;-67
2022/04/21 05:43:40;;;;;;;9.27;6.15;;;;;;;8.94;73.22;101244.81;5318313;28;20076;-67
2022/04/21 05:46:14;;;;;;;11.65;6.00;;;;;;;8.91;73.44;101239.84;5315509;28;20628;-67
2022/04/21 05:48:46;;;;;;;12.02;6.20;;;;;;;9.04;73.31;101248.44;5315182;28;20063;-68
2022/04/21 05:51:17;;;;;;;10.23;6.15;;;;;;;9.07;72.98;101250.03;5318237;28;20096;-67
2022/04/21 05:53:49;;;;;;;7.90;5.50;;;;;;;9.06;72.75;101249.19;5317165;28;20131;-67
2022/04/21 05:56:21;;;;;;;10.20;6.05;;;;;;;9.14;71.11;101254.69;5313193;27;20032;-68
2022/04/21 05:58:52;;;;;;;12.88;6.47;;;;;;;9.16;72.47;101250.16;5318134;28;20030;-67
2022/04/21 06:01:24;;;;;;;11.38;6.07;;;;;;;9.18;71.50;101244.84;5317155;28;20346;-68
2022/04/21 06:03:55;;;;;;;9.65;6.03;;;;;;;9.21;71.42;101249.88;5315567;28;20024;-67
2022/04/21 06:06:27;;;;;;;10.73;6.53;;;;;;;9.26;72.42;101252.97;5316712;28;20077;-67
2022/04/21 06:08:58;;;;;;;14.50;6.10;;;;;;;9.33;72.20;101256.81;5310192;28;20049;-65
2022/04/21 06:11:32;;;;;;;10.82;6.32;;;;;;;9.42;71.30;101250.88;5315351;28;20111;-67
2022/04/21 06:14:03;;;;;;;9.02;5.97;;;;;;;9.45;70.95;101253.28;5319117;28;20188;-67
2022/04/21 06:16:34;;;;;;;11.38;7.20;;;;;;;9.49;69.78;101243.44;5317851;28;20036;-67
2022/04/21 06:19:06;;;;;;;12.25;7.10;;;;;;;9.61;70.06;101249.53;5318335;28;20030;-67
2022/04/21 06:21:37;;;;;;;9.10;6.88;;;;;;;9.66;70.18;101250.03;5317105;28;20062;-67
2022/04/21 06:24:08;;;;;;;10.88;7.13;;;;;;;9.76;70.23;101253.63;5315530;27;20034;-67
2022/04/21 06:26:42;;;;;;;11.63;6.80;;;;;;;9.84;69.79;101239.97;5317175;28;20398;-67
2022/04/21 06:29:13;;;;;;;9.70;6.60;;;;;;;9.96;69.22;101244.28;5315632;28;20077;-67
2022/04/21 06:31:45;;;;;;;8.95;6.45;;;;;;;10.10;68.62;101238.00;5298794;28;20050;-67
2022/04/21 06:34:16;;;;;;;12.00;7.32;;;;;;;10.28;67.50;101238.41;5312096;28;20020;-67
2022/04/21 06:36:49;;;;;;;12.63;6.40;;;;;;;10.38;67.10;101239.34;5316841;28;20467;-68
2022/04/21 06:39:20;;;;;;;8.73;6.30;;;;;;;10.48;65.17;101240.28;5318164;28;20148;-67
2022/04/21 06:41:52;;;;;;;8.50;5.90;;;;;;;10.72;66.86;101232.31;5315712;28;20028;-68
2022/04/21 06:50:03;;;;;;;9.35;6.35;;;;;;;11.06;62.40;101234.84;5318148;28;20024;-66
2022/04/21 06:52:36;;;;;;;10.07;5.85;;;;;;;11.21;62.05;101228.34;5308305;27;20371;-68
2022/04/21 06:55:08;;;;;;;7.70;5.95;;;;;;;11.38;62.70;101224.38;5308780;28;20035;-68
2022/04/21 06:57:39;;;;;;;9.15;5.72;;;;;;;11.37;60.73;101225.34;5311351;28;20031;-66
2022/04/21 07:00:11;;;;;;;8.88;5.90;;;;;;;11.53;60.23;101228.34;5306378;28;20032;-67
2022/04/21 07:02:42;;;;;;;9.55;5.70;;;;;;;11.65;60.10;101229.94;5314059;28;20127;-67
2022/04/21 07:05:14;;;;;;;8.65;6.03;;;;;;;11.77;59.54;101224.63;5317451;28;20460;-67
2022/04/21 07:07:47;;;;;;;9.65;6.22;;;;;;;11.88;59.60;101233.31;5316927;28;20377;-67
2022/04/21 07:10:19;;;;;;;11.68;6.50;;;;;;;12.02;58.43;101224.28;5310741;28;20068;-67
2022/04/21 07:12:51;;;;;;;6.80;4.87;;;;;;;12.14;56.89;101222.41;5313351;28;20028;-67
2022/04/21 07:15:22;;;;;;;9.85;5.55;;;;;;;12.24;56.36;101223.28;5313949;28;20282;-68
2022/04/21 07:17:53;;;;;;;7.70;5.47;;;;;;;12.47;56.68;101230.97;5314095;28;20047;-68
2022/04/21 07:20:25;;;;;;;11.07;5.45;;;;;;;12.51;55.35;101227.13;5315865;27;20120;-68
2022/04/21 07:22:56;;;;;;;8.60;5.80;;;;;;;12.65;54.50;101226.72;5310105;28;20035;-68
2022/04/21 07:25:28;;;;;;;7.38;5.50;;;;;;;12.77;54.06;101228.31;5317041;28;20497;-68
2022/04/21 07:27:59;;;;;;;8.13;6.20;;;;;;;12.96;54.29;101224.88;5314747;28;20028;-68
2022/04/21 07:30:31;;;;;;;9.75;5.85;;;;;;;13.11;54.16;101233.22;5308535;28;20027;-67
2022/04/21 07:33:03;;;;;;;14.40;5.93;;;;;;;13.19;52.26;101238.59;5307616;28;20028;-68
2022/04/21 07:35:34;;;;;;;9.77;5.38;;;;;;;13.42;52.51;101233.09;5314820;28;20023;-68
2022/04/21 07:38:05;;;;;;;8.55;5.20;;;;;;;13.54;52.61;101237.25;5309232;28;20057;-68
2022/04/21 07:40:38;;;;;;;7.43;4.93;;;;;;;13.59;51.16;101232.38;5312434;28;20040;-68
2022/04/21 07:43:09;;;;;;;9.30;5.47;;;;;;;13.73;51.00;101231.13;5312196;28;20035;-69
2022/04/21 07:45:41;;;;;;;9.60;5.25;;;;;;;13.83;50.10;101234.59;5308397;28;20453;-67
2022/04/21 07:48:12;;;;;;;8.15;5.28;;;;;;;13.90;49.88;101240.94;5304373;27;20043;-67
2022/04/21 07:50:44;;;;;;;11.77;4.95;;;;;;;13.98;48.81;101233.16;5304222;28;20028;-68
2022/04/21 07:53:15;;;;;;;10.43;5.47;;;;;;;14.13;49.35;101238.81;5309143;28;20027;-68
2022/04/21 07:55:50;;;;;;;11.05;5.63;;;;;;;14.26;50.86;101234.03;5311651;28;20035;-69
2022/04/21 07:58:26;;;;;;;7.18;5.68;;;;;;;14.31;48.31;101230.97;5311661;28;20019;-67
2022/04/21 08:00:58;;;;;;;7.57;4.97;;;;;;;14.45;48.29;101224.38;5306852;28;20035;-68
2022/04/21 08:03:35;;;;;;;7.05;4.90;;;;;;;14.33;47.09;101226.38;5313683;28;21133;-67
2022/04/21 08:06:06;;;;;;;13.57;5.38;;;;;;;14.50;47.83;101225.63;5312731;28;20038;-68
2022/04/21 08:08:40;;;;;;;6.05;4.90;;;;;;;14.66;47.82;101229.44;5302585;28;20031;-69
2022/04/21 08:11:11;;;;;;;8.50;5.30;;;;;;;14.81;46.57;101225.31;5308746;28;20032;-69
2022/04/21 08:13:42;;;;;;;12.27;5.40;;;;;;;14.94;47.42;101225.81;5308300;28;20031;-68
2022/04/21 08:16:14;;;;;;;8.40;5.18;;;;;;;15.01;47.44;101226.88;5307907;28;20027;-68
2022/04/21 08:18:50;;;;;;;6.28;5.22;;;;;;;15.21;47.18;101227.56;5312697;28;20474;-68
2022/04/21 08:21:21;;;;;;;7.88;4.93;;;;;;;15.36;46.59;101229.66;5313489;28;20084;-69
2022/04/21 08:23:52;;;;;;;7.45;5.47;;;;;;;15.44;46.95;101229.72;5315637;28;20024;-66
2022/04/21 08:34:54;;;;;;;10.52;4.93;;;;;;;15.96;47.47;101235.94;5312635;28;20023;-68
2022/04/21 08:37:25;;;;;;;8.23;4.50;;;;;;;15.80;45.31;101235.81;5309284;28;21665;-68
2022/04/21 08:39:57;;;;;;;7.50;4.60;;;;;;;15.80;45.52;101225.25;5309606;28;20531;-68
2022/04/21 08:42:34;;;;;;;5.70;4.55;;;;;;;15.90;45.77;101236.53;5308941;27;20035;-68
2022/04/21 08:45:07;;;;;;;6.65;4.47;;;;;;;15.87;45.02;101236.00;5311896;28;20034;-68
2022/04/21 08:47:40;;;;;;;8.23;4.65;;;;;;;16.02;46.06;101232.69;5312986;28;20328;-68
2022/04/21 08:50:14;;;;;;;8.05;4.63;;;;;;;15.92;45.10;101225.84;5318470;28;20041;-68
2022/04/21 08:52:45;;;;;;;9.52;4.47;;;;;;;16.05;45.47;101220.94;5317164;28;20027;-68
2022/04/21 08:55:16;;;;;;;6.20;4.30;;;;;;;16.26;46.65;101226.69;5312428;28;20046;-68
2022/04/21 08:57:49;;;;;;;6.97;4.70;;;;;;;16.29;45.21;101228.19;5315913;28;20040;-68
2022/04/21 09:00:21;;;;;;;10.40;5.10;;;;;;;16.30;44.94;101219.25;5312255;27;20030;-68
2022/04/21 09:02:53;;;;;;;8.07;4.75;;;;;;;16.40;45.42;101224.41;5317187;28;20406;-68
2022/04/21 09:05:30;;;;;;;6.97;4.60;;;;;;;16.56;46.08;101219.22;5317857;28;20017;-67
2022/04/21 09:08:02;;;;;;;7.28;4.55;;;;;;;16.49;46.22;101215.53;5317080;27;20043;-68
2022/04/21 09:10:33;;;;;;;7.93;4.45;;;;;;;16.58;44.15;101214.56;5316409;28;20038;-69
2022/04/21 09:13:04;;;;;;;4.70;3.80;;;;;;;16.70;43.96;101205.34;5316456;28;20123;-68
2022/04/21 09:15:43;;;;;;;7.13;3.53;;;;;;;16.72;43.55;101215.78;5316675;28;20120;-68
2022/04/21 09:18:14;;;;;;;11.23;3.97;;;;;;;16.73;42.50;101209.50;5315995;28;20031;-68
2022/04/21 09:20:52;;;;;;;4.18;3.22;;;;;;;17.02;43.05;101204.63;5317528;28;20026;-68
2022/04/21 09:23:32;;;;;;;5.95;3.50;;;;;;;17.09;42.07;101199.50;5316159;28;20024;-68
2022/04/21 09:26:08;;;;;;;5.78;3.40;;;;;;;17.24;42.77;101191.75;5312256;28;20035;-66
2022/04/21 09:28:40;;;;;;;7.57;3.35;;;;;;;17.31;40.47;101197.19;5317360;28;20043;-67
2022/04/21 09:31:11;;;;;;;5.15;3.45;;;;;;;17.41;40.82;101192.56;5316298;28;20385;-67
2022/04/21 09:33:45;;;;;;;6.45;3.20;;;;;;;17.51;39.90;101187.94;5314332;28;20474;-68
2022/04/21 09:36:16;;;;;;;6.75;3.60;;;;;;;17.67;40.80;101182.59;5314190;27;20427;-67
2022/04/21 09:39:03;;;;;;;8.75;3.60;;;;;;;17.73;39.73;101184.59;5316913;28;20104;-67
2022/04/21 09:41:35;;;;;;;5.53;2.63;;;;;;;17.60;38.91;101192.22;5313379;28;20023;-67
2022/04/21 09:47:21;;;;;;;7.35;3.35;;;;;;;17.86;39.47;101192.03;5272483;28;20514;-69
2022/04/21 09:49:52;;;;;;;6.80;3.47;;;;;;;17.85;39.03;101206.28;5272035;28;20040;-67
2022/04/21 09:52:31;;;;;;;6.13;3.33;;;;;;;18.02;39.36;101201.75;5293112;28;20548;-68
2022/04/21 09:55:28;;;;;;;5.60;3.08;;;;;;;18.16;38.26;101190.47;5315704;28;20055;-68
2022/04/21 09:58:07;;;;;;;4.68;3.50;;;;;;;17.95;37.44;101192.84;5311222;28;20027;-68
2022/04/21 10:00:42;;;;;;;6.57;2.63;;;;;;;17.73;36.26;101187.25;5313397;28;20444;-69
2022/04/21 10:03:14;;;;;;;5.50;2.80;;;;;;;17.83;35.12;101180.94;5312428;28;20024;-68
2022/04/21 10:05:45;;;;;;;5.65;2.42;;;;;;;17.75;34.47;101185.25;5307297;28;20393;-68
2022/04/21 10:08:17;;;;;;;4.30;2.72;;;;;;;17.88;35.70;101179.47;5316717;28;20024;-68
2022/04/21 10:10:51;;;;;;;6.53;2.45;;;;;;;17.96;34.35;101176.78;5313654;28;20034;-67
2022/04/21 10:13:23;;;;;;;4.30;2.30;;;;;;;17.98;33.81;101179.25;5312674;28;20032;-67
2022/04/21 10:15:56;;;;;;;5.35;2.20;;;;;;;17.77;32.38;101171.88;5314376;28;20386;-68
2022/04/21 10:18:28;;;;;;;4.53;1.98;;;;;;;17.97;34.71;101172.31;5311725;28;20031;-67
2022/04/21 10:20:59;;;;;;;2.65;2.10;;;;;;;17.82;32.02;101160.75;5315214;28;20024;-68
2022/04/21 10:23:34;;;;;;;2.97;2.05;;;;;;;17.96;33.93;101168.81;5305491;28;20054;-68
2022/04/21 10:26:05;;;;;;;5.40;2.30;;;;;;;17.97;34.48;101154.56;5314679;28;20035;-68
2022/04/21 10:28:41;;;;;;;8.57;2.33;;;;;;;18.17;34.25;101162.94;5314443;28;20031;-68
2022/04/21 10:31:27;;;;;;;4.32;2.58;;;;;;;18.26;32.78;101158.44;5312534;27;20076;-68
2022/04/21 10:34:03;;;;;;;5.25;2.70;;;;;;;18.27;32.96;101156.63;5314146;28;20027;-68
2022/04/21 10:36:41;;;;;;;3.10;2.25;;;;;;;18.28;32.31;101153.78;5313201;28;20027;-67
2022/04/21 10:39:25;;;;;;;5.93;2.50;;;;;;;18.51;31.08;101153.00;5314511;28;20391;-67
2022/04/21 10:42:06;;;;;;;7.13;2.40;;;;;;;18.40;31.44;101144.44;5309823;28;20034;-68
2022/04/21 10:44:48;;;;;;;4.13;1.65;;;;;;;18.70;30.27;101140.13;5314965;28;20027;-68
2022/04/21 10:47:36;;;;;;;8.45;2.13;;;;;;;18.59;30.13;101140.50;5310448;28;20046;-69
2022/04/21 10:50:12;;;;;;;6.25;2.15;;;;;;;18.65;31.24;101139.81;5315130;28;20072;-67
2022/04/21 10:58:34;;;;;;;3.88;1.80;;;;;;;18.59;30.47;101127.25;5311631;28;20061;-68
2022/04/21 11:01:19;;;;;;;3.38;1.83;;;;;;;18.77;29.73;101131.47;5311294;28;20057;-68
2022/04/21 11:04:10;;;;;;;3.30;1.80;;;;;;;18.81;30.35;101132.78;5307977;28;20032;-68
2022/04/21 11:06:46;;;;;;;3.17;1.50;;;;;;;18.69;29.82;101127.84;5313987;28;20031;-68
2022/04/21 11:09:55;;;;;;;4.95;1.63;;;;;;;19.16;29.54;101116.22;5312508;28;20058;-68
2022/04/21 11:12:49;;;;;;;3.38;1.40;;;;;;;19.08;29.33;101115.47;5259943;28;20043;-69
2022/04/21 11:15:33;;;;;;;;;;;;;;;19.39;28.55;101118.00;5250904;28;20040;-68
2022/04/21 11:18:09;;;;;;;;;;;;;;;19.40;27.43;101123.16;5268777;28;19928;-69
2022/04/21 11:20:51;;;;;;;4.03;1.42;;;;;;;19.03;28.56;101101.91;5272253;28;19919;-68
2022/04/21 11:23:25;;;;;;;3.03;1.50;;;;;;;19.10;28.08;101100.19;5272444;28;20028;-68
2022/04/21 11:26:07;;;;;;;2.13;1.27;;;;;;;19.41;28.06;101100.88;5273078;28;20037;-68
2022/04/21 11:28:45;;;;;;;3.40;1.67;;;;;;;19.38;27.31;101095.09;5270527;28;20044;-67
2022/04/21 11:31:20;;;;;;;3.55;1.73;;;;;;;19.23;27.50;101094.25;5271576;28;20024;-69
2022/04/21 11:33:52;;;;;;;5.65;1.73;;;;;;;19.47;27.79;101087.84;5272553;28;20075;-70
2022/04/21 11:36:34;;;;;;;2.53;1.42;;;;;;;19.62;27.86;101075.44;5270707;28;20029;-68
2022/04/21 11:39:07;;;;;;;6.55;1.95;;;;;;;19.52;26.59;101074.88;5272504;28;20028;-69
2022/04/21 11:41:44;;;;;;;2.53;1.27;;;;;;;19.59;27.26;101083.75;5271932;28;20035;-69
2022/04/21 11:44:22;;;;;;;6.22;1.50;;;;;;;19.76;27.56;101093.22;5268828;28;20035;-69
2022/04/21 11:46:54;;;;;;;5.60;2.15;;;;;;;19.61;27.33;101071.91;5270952;28;20028;-69
2022/04/21 11:49:25;;;;;;;4.72;2.00;;;;;;;19.77;27.96;101067.44;5274397;28;20498;-69
2022/04/21 11:51:56;;;;;;;7.40;1.60;;;;;;;19.73;27.88;101074.16;5271763;28;20086;-68
2022/04/21 11:54:27;;;;;;;5.38;1.73;;;;;;;19.74;27.03;101075.81;5271875;28;20034;-68
2022/04/21 11:57:01;;;;;;;4.00;1.70;;;;;;;19.55;25.39;101083.31;5272470;28;20079;-70
2022/04/21 11:59:36;;;;;;;3.63;1.63;;;;;;;19.66;26.23;101077.56;5271169;28;20024;-69
2022/04/21 12:07:48;;;;;;;4.75;1.65;;;;;;;19.82;27.48;101073.06;5270483;28;20066;-69
2022/04/21 12:10:19;;;;;;;9.03;2.13;;;;;;;19.73;28.32;101066.16;5273275;28;20047;-69
2022/04/21 12:12:50;;;;;;;8.32;2.00;;;;;;;19.82;28.20;101073.06;5270162;28;20495;-68
2022/04/21 12:15:29;;;;;;;5.03;2.15;;;;;;;19.79;28.05;101063.59;5310965;28;20586;-69
2022/04/21 12:18:01;;;;;;;6.20;1.60;;;;;;;20.00;28.17;101056.69;5310505;28;20053;-69
2022/04/21 12:20:33;;;;;;;4.32;1.77;;;;;;;19.88;27.63;101059.81;5314185;28;20089;-69
2022/04/21 12:23:04;;;;;;;4.80;1.80;;;;;;;20.14;26.93;101058.50;5316130;28;20040;-69
2022/04/21 12:25:36;;;;;;;7.03;2.00;;;;;;;20.12;26.31;101052.56;5317243;28;20043;-69
2022/04/21 12:28:07;;;;;;;4.82;1.70;;;;;;;20.24;26.76;101053.69;5314935;28;20035;-69
2022/04/21 12:30:39;;;;;;;3.53;1.87;;;;;;;20.27;26.49;101056.00;5315643;28;20470;-68
2022/04/21 12:33:10;;;;;;;5.67;1.83;;;;;;;20.35;27.08;101047.06;5316933;28;20039;-69
2022/04/21 12:35:46;;;;;;;3.87;1.53;;;;;;;20.16;25.81;101056.47;5317447;28;20066;-69
2022/04/21 12:41:07;;;;;;;3.85;1.52;;;;;;;20.39;25.90;101033.19;5313561;28;20047;-70
2022/04/21 12:43:39;;;;;;;3.72;1.65;;;;;;;20.14;25.91;101039.88;5314944;28;20478;-69
2022/04/21 12:46:12;;;;;;;3.73;1.97;;;;;;;19.92;25.82;101036.34;5311086;28;20039;-70
2022/04/21 12:48:48;;;;;;;4.90;1.75;;;;;;;19.85;27.08;101028.31;5310051;28;20482;-69